createdAt,value
2019-04-06T00:00:32.057Z,87.32
2019-04-06T00:05:31.158Z,88.53
2019-04-06T00:10:27.386Z,87.78
2019-04-06T00:15:39.270Z,88.30
2019-04-06T00:20:37.894Z,87.74
2019-04-06T00:25:43.758Z,89.60
2019-04-06T00:30:43.081Z,88.94
2019-04-06T00:35:39.021Z,87.55
2019-04-06T00:40:35.064Z,87.91
2019-04-06T00:45:31.239Z,88.83
2019-04-06T00:50:27.156Z,89.00
2019-04-06T00:55:23.146Z,87.80
2019-04-06T01:00:19.570Z,89.89
2019-04-06T01:05:15.734Z,88.64
2019-04-06T01:10:11.774Z,89.98
2019-04-06T01:15:08.578Z,91.51
2019-04-06T01:20:05.059Z,91.80
2019-04-06T01:25:00.872Z,89.22
2019-04-06T01:29:56.907Z,87.96
2019-04-06T01:34:52.907Z,88.64
2019-04-06T01:39:48.675Z,89.55
2019-04-06T01:44:44.742Z,89.79
2019-04-06T01:49:40.859Z,89.25
2019-04-06T01:54:38.038Z,89.71
2019-04-06T01:59:33.840Z,89.67
2019-04-06T02:04:29.645Z,89.92
2019-04-06T02:09:25.510Z,90.21
2019-04-06T02:14:21.430Z,89.54
2019-04-06T02:19:17.240Z,90.11
2019-04-06T02:24:13.166Z,90.16
2019-04-06T02:29:15.781Z,91.74
2019-04-06T02:34:25.095Z,91.52
2019-04-06T02:39:31.297Z,91.68
2019-04-06T02:44:27.584Z,90.83
2019-04-06T02:49:23.506Z,91.20
2019-04-06T02:54:19.302Z,91.83
2019-04-06T02:59:15.229Z,93.01
2019-04-06T03:04:11.172Z,90.56
2019-04-06T03:09:11.014Z,89.48
2019-04-06T03:14:05.367Z,91.20
2019-04-06T03:19:01.310Z,92.80
2019-04-06T03:23:57.237Z,93.19
2019-04-06T03:28:53.293Z,93.77
2019-04-06T03:33:49.288Z,92.27
2019-04-06T03:38:45.180Z,92.78
2019-04-06T03:43:41.035Z,91.51
2019-04-06T03:48:36.855Z,91.42
2019-04-06T03:53:33.834Z,92.38
2019-04-06T03:58:29.878Z,91.76
2019-04-06T04:03:25.906Z,93.98
2019-04-06T04:08:22.115Z,96.06
2019-04-06T04:13:18.032Z,93.71
2019-04-06T04:18:13.820Z,92.78
2019-04-06T04:23:09.800Z,93.21
2019-04-06T04:28:05.701Z,92.84
2019-04-06T04:33:01.917Z,93.67
2019-04-06T04:37:57.830Z,93.14
2019-04-06T04:42:57.103Z,95.11
2019-04-06T04:47:53.113Z,95.17
2019-04-06T04:52:48.991Z,93.32
2019-04-06T04:57:51.847Z,92.64
2019-04-06T05:02:53.977Z,93.77
2019-04-06T05:07:50.034Z,92.71
2019-04-06T05:12:45.905Z,93.52
2019-04-06T05:17:41.687Z,94.14
2019-04-06T05:22:37.651Z,94.46
2019-04-06T05:27:33.619Z,93.36
2019-04-06T05:32:29.734Z,95.10
2019-04-06T05:37:25.731Z,93.65
2019-04-06T05:42:21.577Z,93.37
2019-04-06T05:47:17.581Z,95.03
2019-04-06T05:52:13.423Z,94.38
2019-04-06T05:57:09.401Z,94.20
2019-04-06T06:02:05.388Z,93.29
2019-04-06T06:07:01.264Z,94.42
2019-04-06T06:11:57.126Z,94.72
2019-04-06T06:16:53.235Z,92.74
2019-04-06T06:21:50.129Z,94.51
2019-04-06T06:26:45.935Z,97.47
2019-04-06T06:31:41.767Z,96.20
2019-04-06T06:36:37.721Z,95.18
2019-04-06T06:41:33.619Z,98.31
2019-04-06T06:46:29.473Z,98.68
2019-04-06T06:51:25.367Z,98.83
2019-04-06T06:56:21.174Z,98.15
2019-04-06T07:01:16.981Z,97.43
2019-04-06T07:06:12.925Z,97.06
2019-04-06T07:11:08.838Z,97.53
2019-04-06T07:16:04.847Z,99.52
2019-04-06T07:21:00.670Z,99.10
2019-04-06T07:26:02.102Z,97.16
2019-04-06T07:31:01.805Z,96.56
2019-04-06T07:36:03.461Z,95.54
2019-04-06T07:41:23.096Z,96.49
2019-04-06T07:46:25.665Z,96.24
2019-04-06T07:52:52.387Z,95.23
2019-04-06T07:58:50.761Z,94.32
2019-04-06T08:30:07.141Z,88.86
2019-04-06T08:35:03.240Z,87.10
2019-04-06T08:39:59.097Z,87.39
2019-04-06T08:44:55.080Z,87.58
2019-04-06T08:49:50.953Z,84.57
2019-04-06T08:54:46.925Z,80.69
2019-04-06T08:59:42.949Z,80.48
2019-04-06T09:04:39.046Z,79.85
2019-04-06T09:09:34.835Z,79.57
2019-04-06T09:14:30.890Z,79.80
2019-04-06T09:19:29.856Z,79.30
2019-04-06T09:24:25.897Z,79.14
2019-04-06T09:29:23.865Z,79.71
2019-04-06T09:34:22.754Z,76.85
2019-04-06T09:39:18.881Z,76.56
2019-04-06T09:44:24.070Z,72.24
2019-04-06T09:49:41.661Z,71.88
2019-04-06T09:54:55.119Z,72.67
2019-04-06T10:00:09.902Z,71.18
2019-04-06T10:05:16.076Z,69.66
2019-04-06T10:10:47.075Z,72.31
2019-04-06T10:16:04.898Z,72.10
2019-04-06T10:21:20.886Z,75.29
2019-04-06T10:26:35.609Z,70.96
2019-04-06T10:31:47.024Z,71.77
2019-04-06T10:37:10.947Z,71.03
2019-04-06T10:42:24.194Z,70.26
2019-04-06T10:47:38.872Z,68.72
2019-04-06T10:52:53.601Z,66.36
2019-04-06T10:58:07.223Z,67.78
2019-04-06T11:03:27.825Z,64.28
2019-04-06T11:08:42.489Z,69.86
2019-04-06T11:13:57.364Z,65.99
2019-04-06T11:19:18.375Z,64.35
2019-04-06T11:24:36.007Z,62.77
2019-04-06T11:29:49.249Z,65.30
2019-04-06T11:35:06.960Z,63.24
2019-04-06T11:40:20.348Z,63.71
2019-04-06T11:45:32.074Z,65.31
2019-04-06T11:50:41.803Z,62.23
2019-04-06T11:56:02.783Z,62.21
2019-04-06T12:01:07.510Z,61.39
2019-04-06T12:06:21.031Z,61.41
2019-04-06T12:11:42.310Z,60.91
2019-04-06T12:16:55.482Z,61.60
2019-04-06T12:22:09.956Z,57.49
2019-04-06T12:27:19.102Z,63.18
2019-04-06T12:32:46.149Z,61.16
2019-04-06T12:37:56.035Z,53.84
2019-04-06T12:43:23.334Z,57.13
2019-04-06T12:48:41.489Z,56.24
2019-04-06T12:53:56.162Z,56.22
2019-04-06T12:59:09.875Z,57.60
2019-04-06T13:04:28.660Z,58.23
2019-04-06T13:09:39.260Z,57.26
2019-04-06T13:14:47.387Z,53.94
2019-04-06T13:20:02.414Z,54.38
2019-04-06T13:25:05.926Z,53.18
2019-04-06T13:30:24.049Z,52.61
2019-04-06T13:35:29.426Z,53.55
2019-04-06T13:40:42.799Z,51.19
2019-04-06T13:45:56.768Z,53.70
2019-04-06T13:51:11.581Z,48.90
2019-04-06T13:56:40.989Z,55.33
2019-04-06T14:01:48.630Z,50.52
2019-04-06T14:07:11.329Z,51.51
2019-04-06T14:12:26.179Z,50.65
2019-04-06T14:17:44.178Z,49.50
2019-04-06T14:22:52.760Z,49.58
2019-04-06T14:28:08.611Z,53.08
2019-04-06T14:33:23.012Z,51.78
2019-04-06T14:38:30.095Z,50.61
2019-04-06T14:43:43.460Z,51.77
2019-04-06T14:49:13.874Z,54.58
2019-04-06T14:54:31.234Z,56.59
2019-04-06T14:59:45.131Z,58.23
2019-04-06T15:04:53.360Z,59.45
2019-04-06T15:10:33.904Z,57.01
2019-04-06T15:15:54.305Z,58.60
2019-04-06T15:21:15.542Z,55.96
2019-04-06T15:27:11.392Z,57.44
2019-04-06T15:33:31.008Z,57.68
2019-04-06T15:39:16.697Z,57.67
2019-04-06T15:44:32.868Z,57.08
2019-04-06T15:50:27.086Z,56.62
2019-04-06T15:56:06.918Z,59.60
2019-04-06T16:01:59.562Z,61.98
2019-04-06T16:07:41.064Z,60.88
2019-04-06T16:12:56.105Z,61.24
2019-04-06T16:18:17.133Z,63.18
2019-04-06T16:23:29.131Z,61.78
2019-04-06T16:28:57.504Z,59.98
2019-04-06T16:34:16.723Z,65.25
2019-04-06T16:40:06.902Z,66.97
2019-04-06T16:57:42.243Z,65.20
2019-04-06T17:02:51.773Z,68.29
2019-04-06T17:08:10.544Z,70.15
2019-04-06T17:13:40.728Z,71.15
2019-04-06T17:19:13.607Z,70.14
2019-04-06T17:24:28.451Z,72.47
2019-04-06T17:29:51.891Z,72.78
2019-04-06T17:35:10.324Z,73.97
2019-04-06T17:40:27.561Z,77.48
2019-04-06T17:45:41.765Z,80.45
2019-04-06T17:51:32.064Z,79.88
2019-04-06T17:57:17.424Z,79.84
2019-04-06T18:02:48.348Z,79.85
2019-04-06T18:08:11.000Z,83.22
2019-04-06T18:13:44.296Z,82.06
2019-04-06T18:18:46.808Z,83.13
2019-04-06T18:24:00.252Z,82.95
2019-04-06T18:28:56.226Z,82.70
2019-04-06T18:34:02.881Z,82.73
2019-04-06T18:39:13.926Z,85.00
2019-04-06T18:44:18.644Z,84.03
2019-04-06T18:49:19.585Z,84.67
2019-04-06T18:54:17.309Z,85.50
2019-04-06T18:59:13.431Z,84.52
2019-04-06T19:04:12.076Z,85.52
2019-04-06T19:09:22.276Z,85.82
2019-04-06T19:14:11.422Z,86.12
2019-04-06T19:19:11.837Z,86.27
2019-04-06T19:24:19.502Z,85.69
2019-04-06T19:29:16.066Z,85.07
2019-04-06T19:34:21.581Z,85.80
2019-04-06T19:39:17.524Z,86.23
2019-04-06T19:44:13.537Z,87.35
2019-04-06T19:49:09.540Z,87.16
2019-04-06T19:54:06.457Z,86.76
2019-04-06T19:59:02.970Z,85.84
2019-04-06T20:03:59.160Z,86.50
2019-04-06T20:08:55.106Z,86.66
2019-04-06T20:13:50.911Z,87.68
2019-04-06T20:18:46.921Z,87.94
2019-04-06T20:23:42.971Z,88.00
2019-04-06T20:28:39.027Z,87.52
2019-04-06T20:33:45.988Z,87.90
2019-04-06T20:38:32.447Z,89.13
2019-04-06T20:43:28.717Z,89.22
2019-04-06T20:48:25.727Z,89.18
2019-04-06T20:53:35.520Z,88.22
2019-04-06T20:58:45.591Z,86.88
2019-04-06T21:03:58.829Z,89.73
2019-04-06T21:09:08.762Z,89.08
2019-04-06T21:21:11.838Z,89.47
2019-04-06T21:32:52.466Z,89.65
2019-04-06T21:38:04.070Z,90.13
2019-04-06T21:43:00.112Z,90.16
2019-04-06T21:47:56.017Z,91.39
2019-04-06T21:52:51.964Z,91.03
2019-04-06T21:58:00.397Z,91.00
2019-04-06T22:03:02.936Z,90.71
2019-04-06T22:08:13.074Z,89.46
2019-04-06T22:13:10.496Z,89.29
2019-04-06T22:18:06.631Z,92.44
2019-04-06T22:23:02.852Z,90.98
2019-04-06T22:27:58.754Z,93.09
2019-04-06T22:32:55.040Z,92.29
2019-04-06T22:37:51.485Z,91.65
2019-04-06T22:42:48.712Z,92.78
2019-04-06T22:47:45.160Z,92.90
2019-04-06T22:52:41.306Z,91.59
2019-04-06T22:57:37.344Z,93.80
2019-04-06T23:02:46.886Z,94.43
2019-04-06T23:07:42.970Z,93.80
2019-04-06T23:12:40.906Z,94.72
2019-04-06T23:17:36.824Z,94.83
2019-04-06T23:22:34.540Z,92.53
2019-04-06T23:27:30.807Z,92.85
2019-04-06T23:32:26.627Z,92.29
2019-04-06T23:37:22.443Z,94.50
2019-04-06T23:42:18.363Z,93.36
2019-04-06T23:47:14.709Z,94.77
2019-04-06T23:52:10.528Z,92.37
2019-04-06T23:57:07.510Z,94.08
